sensor_id;sensor_type;location;lat;lon;timestamp;pressure;altitude;pressure_sealevel;temperature
33267;BMP180;19638;49.080;11.896;2022-12-18T00:02:13;97390.00;;;-2.40
33267;BMP180;19638;49.080;11.896;2022-12-18T00:06:18;97381.00;;;-2.40
33267;BMP180;19638;49.080;11.896;2022-12-18T00:10:22;97379.00;;;-2.40
33267;BMP180;19638;49.080;11.896;2022-12-18T00:14:59;97384.00;;;-2.40
33267;BMP180;19638;49.080;11.896;2022-12-18T00:19:03;97400.00;;;-2.40
33267;BMP180;19638;49.080;11.896;2022-12-18T00:23:08;97411.00;;;-2.40
33267;BMP180;19638;49.080;11.896;2022-12-18T00:27:11;97405.00;;;-2.40
33267;BMP180;19638;49.080;11.896;2022-12-18T00:31:16;97414.00;;;-2.40
33267;BMP180;19638;49.080;11.896;2022-12-18T00:35:19;97421.00;;;-2.40
33267;BMP180;19638;49.080;11.896;2022-12-18T00:39:58;97431.00;;;-2.30
33267;BMP180;19638;49.080;11.896;2022-12-18T00:44:01;97440.00;;;-2.30
33267;BMP180;19638;49.080;11.896;2022-12-18T00:48:04;97430.00;;;-2.20
33267;BMP180;19638;49.080;11.896;2022-12-18T00:52:17;97427.00;;;-2.20
33267;BMP180;19638;49.080;11.896;2022-12-18T00:56:49;97427.00;;;-2.20
33267;BMP180;19638;49.080;11.896;2022-12-18T01:00:52;97419.00;;;-2.30
33267;BMP180;19638;49.080;11.896;2022-12-18T01:04:56;97400.00;;;-2.30
33267;BMP180;19638;49.080;11.896;2022-12-18T01:08:59;97408.00;;;-2.40
33267;BMP180;19638;49.080;11.896;2022-12-18T01:13:03;97419.00;;;-2.50
33267;BMP180;19638;49.080;11.896;2022-12-18T01:17:06;97424.00;;;-2.60
33267;BMP180;19638;49.080;11.896;2022-12-18T01:21:11;97425.00;;;-2.60
33267;BMP180;19638;49.080;11.896;2022-12-18T01:25:45;97418.00;;;-2.70
33267;BMP180;19638;49.080;11.896;2022-12-18T01:29:50;97419.00;;;-2.70
33267;BMP180;19638;49.080;11.896;2022-12-18T01:38:24;97436.00;;;-2.70
33267;BMP180;19638;49.080;11.896;2022-12-18T01:42:27;97441.00;;;-2.60
33267;BMP180;19638;49.080;11.896;2022-12-18T01:46:32;97442.00;;;-2.50
33267;BMP180;19638;49.080;11.896;2022-12-18T01:50:37;97450.00;;;-2.40
33267;BMP180;19638;49.080;11.896;2022-12-18T01:54:41;97450.00;;;-2.30
33267;BMP180;19638;49.080;11.896;2022-12-18T01:58:55;97452.00;;;-2.30
33267;BMP180;19638;49.080;11.896;2022-12-18T02:03:00;97448.00;;;-2.30
33267;BMP180;19638;49.080;11.896;2022-12-18T02:07:37;97457.00;;;-2.20
33267;BMP180;19638;49.080;11.896;2022-12-18T02:11:49;97469.00;;;-2.20
33267;BMP180;19638;49.080;11.896;2022-12-18T02:16:08;97470.00;;;-2.10
33267;BMP180;19638;49.080;11.896;2022-12-18T02:20:36;97463.00;;;-2.00
33267;BMP180;19638;49.080;11.896;2022-12-18T02:24:48;97458.00;;;-2.00
33267;BMP180;19638;49.080;11.896;2022-12-18T02:29:03;97458.00;;;-2.00
33267;BMP180;19638;49.080;11.896;2022-12-18T02:33:09;97449.00;;;-2.00
33267;BMP180;19638;49.080;11.896;2022-12-18T02:41:48;97458.00;;;-2.00
33267;BMP180;19638;49.080;11.896;2022-12-18T02:45:55;97461.00;;;-2.00
33267;BMP180;19638;49.080;11.896;2022-12-18T02:50:28;97469.00;;;-2.00
33267;BMP180;19638;49.080;11.896;2022-12-18T02:55:05;97461.00;;;-2.00
33267;BMP180;19638;49.080;11.896;2022-12-18T02:59:13;97448.00;;;-2.00
33267;BMP180;19638;49.080;11.896;2022-12-18T03:03:24;97457.00;;;-2.00
33267;BMP180;19638;49.080;11.896;2022-12-18T03:07:36;97469.00;;;-1.90
33267;BMP180;19638;49.080;11.896;2022-12-18T03:11:44;97457.00;;;-1.90
33267;BMP180;19638;49.080;11.896;2022-12-18T03:16:25;97463.00;;;-2.00
33267;BMP180;19638;49.080;11.896;2022-12-18T03:20:33;97461.00;;;-1.90
33267;BMP180;19638;49.080;11.896;2022-12-18T03:24:37;97457.00;;;-1.80
33267;BMP180;19638;49.080;11.896;2022-12-18T03:28:45;97457.00;;;-1.80
33267;BMP180;19638;49.080;11.896;2022-12-18T03:32:54;97450.00;;;-1.80
33267;BMP180;19638;49.080;11.896;2022-12-18T03:37:06;97455.00;;;-1.80
33267;BMP180;19638;49.080;11.896;2022-12-18T03:41:16;97455.00;;;-1.80
33267;BMP180;19638;49.080;11.896;2022-12-18T03:45:24;97458.00;;;-1.90
33267;BMP180;19638;49.080;11.896;2022-12-18T03:49:35;97448.00;;;-1.90
33267;BMP180;19638;49.080;11.896;2022-12-18T03:53:44;97449.00;;;-1.90
33267;BMP180;19638;49.080;11.896;2022-12-18T03:57:51;97460.00;;;-2.00
33267;BMP180;19638;49.080;11.896;2022-12-18T04:01:55;97461.00;;;-2.00
33267;BMP180;19638;49.080;11.896;2022-12-18T04:06:01;97463.00;;;-2.00
33267;BMP180;19638;49.080;11.896;2022-12-18T04:10:11;97472.00;;;-2.00
33267;BMP180;19638;49.080;11.896;2022-12-18T04:14:15;97473.00;;;-2.00
33267;BMP180;19638;49.080;11.896;2022-12-18T04:18:19;97472.00;;;-2.00
33267;BMP180;19638;49.080;11.896;2022-12-18T04:22:22;97476.00;;;-2.00
33267;BMP180;19638;49.080;11.896;2022-12-18T04:26:26;97476.00;;;-2.10
33267;BMP180;19638;49.080;11.896;2022-12-18T04:30:30;97487.00;;;-2.10
33267;BMP180;19638;49.080;11.896;2022-12-18T04:34:33;97484.00;;;-2.10
33267;BMP180;19638;49.080;11.896;2022-12-18T04:38:36;97494.00;;;-2.10
33267;BMP180;19638;49.080;11.896;2022-12-18T04:42:41;97482.00;;;-2.00
33267;BMP180;19638;49.080;11.896;2022-12-18T04:46:46;97481.00;;;-2.00
33267;BMP180;19638;49.080;11.896;2022-12-18T04:50:52;97498.00;;;-1.90
33267;BMP180;19638;49.080;11.896;2022-12-18T04:55:07;97495.00;;;-1.90
33267;BMP180;19638;49.080;11.896;2022-12-18T04:59:11;97492.00;;;-2.00
33267;BMP180;19638;49.080;11.896;2022-12-18T05:03:15;97497.00;;;-2.00
33267;BMP180;19638;49.080;11.896;2022-12-18T05:07:18;97495.00;;;-2.00
33267;BMP180;19638;49.080;11.896;2022-12-18T05:11:21;97504.00;;;-2.00
33267;BMP180;19638;49.080;11.896;2022-12-18T05:15:28;97512.00;;;-2.00
33267;BMP180;19638;49.080;11.896;2022-12-18T05:19:32;97499.00;;;-2.10
33267;BMP180;19638;49.080;11.896;2022-12-18T05:23:35;97516.00;;;-2.00
33267;BMP180;19638;49.080;11.896;2022-12-18T05:27:39;97528.00;;;-2.00
33267;BMP180;19638;49.080;11.896;2022-12-18T05:31:44;97521.00;;;-1.90
33267;BMP180;19638;49.080;11.896;2022-12-18T05:35:50;97520.00;;;-1.90
33267;BMP180;19638;49.080;11.896;2022-12-18T05:39:53;97521.00;;;-1.80
33267;BMP180;19638;49.080;11.896;2022-12-18T05:43:57;97533.00;;;-1.80
33267;BMP180;19638;49.080;11.896;2022-12-18T05:48:02;97527.00;;;-1.90
33267;BMP180;19638;49.080;11.896;2022-12-18T05:52:05;97531.00;;;-1.90
33267;BMP180;19638;49.080;11.896;2022-12-18T05:56:12;97536.00;;;-1.90
33267;BMP180;19638;49.080;11.896;2022-12-18T06:00:16;97531.00;;;-2.00
33267;BMP180;19638;49.080;11.896;2022-12-18T06:04:21;97541.00;;;-2.00
33267;BMP180;19638;49.080;11.896;2022-12-18T06:08:24;97533.00;;;-2.10
33267;BMP180;19638;49.080;11.896;2022-12-18T06:12:36;97542.00;;;-2.10
33267;BMP180;19638;49.080;11.896;2022-12-18T06:16:39;97546.00;;;-2.10
33267;BMP180;19638;49.080;11.896;2022-12-18T06:20:44;97546.00;;;-2.10
33267;BMP180;19638;49.080;11.896;2022-12-18T06:24:47;97536.00;;;-2.20
33267;BMP180;19638;49.080;11.896;2022-12-18T06:28:50;97546.00;;;-2.20
33267;BMP180;19638;49.080;11.896;2022-12-18T06:32:53;97550.00;;;-2.20
33267;BMP180;19638;49.080;11.896;2022-12-18T06:36:59;97555.00;;;-2.20
33267;BMP180;19638;49.080;11.896;2022-12-18T06:41:06;97548.00;;;-2.20
33267;BMP180;19638;49.080;11.896;2022-12-18T06:45:10;97564.00;;;-2.30
33267;BMP180;19638;49.080;11.896;2022-12-18T06:49:13;97566.00;;;-2.30
33267;BMP180;19638;49.080;11.896;2022-12-18T06:53:19;97575.00;;;-2.30
33267;BMP180;19638;49.080;11.896;2022-12-18T06:57:22;97582.00;;;-2.30
33267;BMP180;19638;49.080;11.896;2022-12-18T07:01:25;97579.00;;;-2.30
33267;BMP180;19638;49.080;11.896;2022-12-18T07:05:28;97588.00;;;-2.30
33267;BMP180;19638;49.080;11.896;2022-12-18T07:09:33;97585.00;;;-2.30
33267;BMP180;19638;49.080;11.896;2022-12-18T07:13:36;97593.00;;;-2.40
33267;BMP180;19638;49.080;11.896;2022-12-18T07:17:39;97590.00;;;-2.30
33267;BMP180;19638;49.080;11.896;2022-12-18T07:21:42;97593.00;;;-2.30
33267;BMP180;19638;49.080;11.896;2022-12-18T07:25:47;97574.00;;;-2.30
33267;BMP180;19638;49.080;11.896;2022-12-18T07:29:51;97565.00;;;-2.30
33267;BMP180;19638;49.080;11.896;2022-12-18T07:33:55;97578.00;;;-2.20
33267;BMP180;19638;49.080;11.896;2022-12-18T07:37:58;97570.00;;;-2.10
33267;BMP180;19638;49.080;11.896;2022-12-18T07:42:03;97579.00;;;-2.10
33267;BMP180;19638;49.080;11.896;2022-12-18T07:46:25;97585.00;;;-2.00
33267;BMP180;19638;49.080;11.896;2022-12-18T07:50:28;97585.00;;;-2.10
33267;BMP180;19638;49.080;11.896;2022-12-18T07:54:31;97594.00;;;-2.10
33267;BMP180;19638;49.080;11.896;2022-12-18T07:58:36;97596.00;;;-2.00
33267;BMP180;19638;49.080;11.896;2022-12-18T08:02:39;97597.00;;;-2.00
33267;BMP180;19638;49.080;11.896;2022-12-18T08:06:43;97593.00;;;-2.00
33267;BMP180;19638;49.080;11.896;2022-12-18T08:10:49;97607.00;;;-1.90
33267;BMP180;19638;49.080;11.896;2022-12-18T08:14:53;97611.00;;;-1.80
33267;BMP180;19638;49.080;11.896;2022-12-18T08:18:56;97620.00;;;-1.70
33267;BMP180;19638;49.080;11.896;2022-12-18T08:22:59;97616.00;;;-1.60
33267;BMP180;19638;49.080;11.896;2022-12-18T08:27:02;97635.00;;;-1.50
33267;BMP180;19638;49.080;11.896;2022-12-18T08:31:29;97637.00;;;-1.40
33267;BMP180;19638;49.080;11.896;2022-12-18T08:35:35;97632.00;;;-1.40
33267;BMP180;19638;49.080;11.896;2022-12-18T08:39:46;97633.00;;;-1.40
33267;BMP180;19638;49.080;11.896;2022-12-18T08:43:49;97633.00;;;-1.30
33267;BMP180;19638;49.080;11.896;2022-12-18T08:48:11;97633.00;;;-1.10
33267;BMP180;19638;49.080;11.896;2022-12-18T08:52:22;97640.00;;;-1.10
33267;BMP180;19638;49.080;11.896;2022-12-18T08:56:25;97649.00;;;-1.00
33267;BMP180;19638;49.080;11.896;2022-12-18T09:00:28;97644.00;;;-1.00
33267;BMP180;19638;49.080;11.896;2022-12-18T09:04:35;97649.00;;;-1.00
33267;BMP180;19638;49.080;11.896;2022-12-18T09:08:38;97636.00;;;-0.90
33267;BMP180;19638;49.080;11.896;2022-12-18T09:12:42;97642.00;;;-0.90
33267;BMP180;19638;49.080;11.896;2022-12-18T09:16:45;97646.00;;;-0.90
33267;BMP180;19638;49.080;11.896;2022-12-18T09:20:49;97646.00;;;-0.90
33267;BMP180;19638;49.080;11.896;2022-12-18T09:24:54;97648.00;;;-0.80
33267;BMP180;19638;49.080;11.896;2022-12-18T09:28:57;97642.00;;;-0.70
33267;BMP180;19638;49.080;11.896;2022-12-18T09:33:00;97643.00;;;-0.80
33267;BMP180;19638;49.080;11.896;2022-12-18T09:37:05;97636.00;;;-0.70
33267;BMP180;19638;49.080;11.896;2022-12-18T09:41:19;97636.00;;;-0.60
33267;BMP180;19638;49.080;11.896;2022-12-18T09:45:30;97619.00;;;-0.50
33267;BMP180;19638;49.080;11.896;2022-12-18T09:49:35;97629.00;;;-0.60
33267;BMP180;19638;49.080;11.896;2022-12-18T09:53:43;97627.00;;;-0.50
33267;BMP180;19638;49.080;11.896;2022-12-18T09:57:52;97623.00;;;-0.40
33267;BMP180;19638;49.080;11.896;2022-12-18T10:01:56;97621.00;;;-0.40
33267;BMP180;19638;49.080;11.896;2022-12-18T10:06:04;97622.00;;;-0.40
33267;BMP180;19638;49.080;11.896;2022-12-18T10:10:21;97624.00;;;-0.30
33267;BMP180;19638;49.080;11.896;2022-12-18T10:14:30;97617.00;;;-0.20
33267;BMP180;19638;49.080;11.896;2022-12-18T10:18:56;97624.00;;;-0.20
33267;BMP180;19638;49.080;11.896;2022-12-18T10:23:04;97608.00;;;-0.10
33267;BMP180;19638;49.080;11.896;2022-12-18T10:27:15;97622.00;;;-0.10
33267;BMP180;19638;49.080;11.896;2022-12-18T10:31:21;97610.00;;;-0.10
33267;BMP180;19638;49.080;11.896;2022-12-18T10:35:26;97607.00;;;-0.10
33267;BMP180;19638;49.080;11.896;2022-12-18T10:39:29;97606.00;;;-0.10
33267;BMP180;19638;49.080;11.896;2022-12-18T10:43:35;97602.00;;;0.00
33267;BMP180;19638;49.080;11.896;2022-12-18T10:47:42;97590.00;;;0.00
33267;BMP180;19638;49.080;11.896;2022-12-18T10:51:46;97588.00;;;-0.10
33267;BMP180;19638;49.080;11.896;2022-12-18T10:55:51;97581.00;;;-0.20
33267;BMP180;19638;49.080;11.896;2022-12-18T10:59:57;97602.00;;;-0.10
33267;BMP180;19638;49.080;11.896;2022-12-18T11:04:07;97597.00;;;0.00
33267;BMP180;19638;49.080;11.896;2022-12-18T11:08:20;97594.00;;;0.20
33267;BMP180;19638;49.080;11.896;2022-12-18T11:12:28;97605.00;;;0.10
33267;BMP180;19638;49.080;11.896;2022-12-18T11:16:36;97606.00;;;0.10
33267;BMP180;19638;49.080;11.896;2022-12-18T11:21:07;97608.00;;;0.00
33267;BMP180;19638;49.080;11.896;2022-12-18T11:25:19;97600.00;;;0.10
33267;BMP180;19638;49.080;11.896;2022-12-18T11:29:39;97610.00;;;0.20
33267;BMP180;19638;49.080;11.896;2022-12-18T11:33:56;97600.00;;;0.30
33267;BMP180;19638;49.080;11.896;2022-12-18T11:38:23;97603.00;;;0.30
33267;BMP180;19638;49.080;11.896;2022-12-18T11:42:32;97611.00;;;0.50
33267;BMP180;19638;49.080;11.896;2022-12-18T11:46:41;97596.00;;;0.50
33267;BMP180;19638;49.080;11.896;2022-12-18T11:50:51;97606.00;;;0.40
33267;BMP180;19638;49.080;11.896;2022-12-18T11:54:57;97605.00;;;0.30
33267;BMP180;19638;49.080;11.896;2022-12-18T11:59:08;97606.00;;;0.10
33267;BMP180;19638;49.080;11.896;2022-12-18T12:03:35;97608.00;;;0.10
33267;BMP180;19638;49.080;11.896;2022-12-18T12:07:48;97594.00;;;0.10
33267;BMP180;19638;49.080;11.896;2022-12-18T12:12:02;97575.00;;;0.00
33267;BMP180;19638;49.080;11.896;2022-12-18T12:16:17;97574.00;;;-0.10
33267;BMP180;19638;49.080;11.896;2022-12-18T12:20:27;97571.00;;;0.00
33267;BMP180;19638;49.080;11.896;2022-12-18T12:24:50;97553.00;;;0.10
33267;BMP180;19638;49.080;11.896;2022-12-18T12:29:07;97548.00;;;0.10
33267;BMP180;19638;49.080;11.896;2022-12-18T12:33:27;97549.00;;;0.10
33267;BMP180;19638;49.080;11.896;2022-12-18T12:37:39;97550.00;;;0.10
33267;BMP180;19638;49.080;11.896;2022-12-18T12:41:47;97549.00;;;0.10
33267;BMP180;19638;49.080;11.896;2022-12-18T12:46:09;97549.00;;;0.00
33267;BMP180;19638;49.080;11.896;2022-12-18T12:50:15;97561.00;;;-0.10
33267;BMP180;19638;49.080;11.896;2022-12-18T12:54:21;97561.00;;;-0.10
33267;BMP180;19638;49.080;11.896;2022-12-18T12:58:33;97549.00;;;0.00
33267;BMP180;19638;49.080;11.896;2022-12-18T13:02:46;97543.00;;;-0.10
33267;BMP180;19638;49.080;11.896;2022-12-18T13:06:58;97549.00;;;0.00
33267;BMP180;19638;49.080;11.896;2022-12-18T13:11:03;97558.00;;;0.00
33267;BMP180;19638;49.080;11.896;2022-12-18T13:15:41;97558.00;;;0.20
33267;BMP180;19638;49.080;11.896;2022-12-18T13:20:10;97559.00;;;0.20
33267;BMP180;19638;49.080;11.896;2022-12-18T13:24:20;97555.00;;;0.10
33267;BMP180;19638;49.080;11.896;2022-12-18T13:28:50;97555.00;;;-0.10
33267;BMP180;19638;49.080;11.896;2022-12-18T13:38:23;97551.00;;;-0.50
33267;BMP180;19638;49.080;11.896;2022-12-18T13:42:39;97541.00;;;-0.70
33267;BMP180;19638;49.080;11.896;2022-12-18T13:47:01;97535.00;;;-0.80
33267;BMP180;19638;49.080;11.896;2022-12-18T13:51:06;97537.00;;;-0.90
33267;BMP180;19638;49.080;11.896;2022-12-18T13:55:17;97531.00;;;-1.00
33267;BMP180;19638;49.080;11.896;2022-12-18T13:59:24;97544.00;;;-1.00
33267;BMP180;19638;49.080;11.896;2022-12-18T14:03:29;97537.00;;;-1.10
33267;BMP180;19638;49.080;11.896;2022-12-18T14:07:32;97544.00;;;-1.10
33267;BMP180;19638;49.080;11.896;2022-12-18T14:11:50;97547.00;;;-1.20
33267;BMP180;19638;49.080;11.896;2022-12-18T14:15:55;97541.00;;;-1.30
33267;BMP180;19638;49.080;11.896;2022-12-18T14:20:00;97537.00;;;-1.40
33267;BMP180;19638;49.080;11.896;2022-12-18T14:24:06;97525.00;;;-1.40
33267;BMP180;19638;49.080;11.896;2022-12-18T14:28:14;97528.00;;;-1.50
33267;BMP180;19638;49.080;11.896;2022-12-18T14:32:19;97526.00;;;-1.70
33267;BMP180;19638;49.080;11.896;2022-12-18T14:36:24;97524.00;;;-1.90
33267;BMP180;19638;49.080;11.896;2022-12-18T14:40:27;97523.00;;;-2.00
33267;BMP180;19638;49.080;11.896;2022-12-18T14:44:32;97516.00;;;-2.10
33267;BMP180;19638;49.080;11.896;2022-12-18T14:48:56;97512.00;;;-2.30
33267;BMP180;19638;49.080;11.896;2022-12-18T14:52:59;97523.00;;;-2.40
33267;BMP180;19638;49.080;11.896;2022-12-18T14:57:05;97531.00;;;-2.50
33267;BMP180;19638;49.080;11.896;2022-12-18T15:01:28;97531.00;;;-2.60
33267;BMP180;19638;49.080;11.896;2022-12-18T15:05:35;97532.00;;;-2.80
33267;BMP180;19638;49.080;11.896;2022-12-18T15:09:40;97530.00;;;-2.90
33267;BMP180;19638;49.080;11.896;2022-12-18T15:13:44;97534.00;;;-3.00
33267;BMP180;19638;49.080;11.896;2022-12-18T15:17:58;97532.00;;;-3.10
33267;BMP180;19638;49.080;11.896;2022-12-18T15:22:01;97535.00;;;-3.20
33267;BMP180;19638;49.080;11.896;2022-12-18T15:26:08;97533.00;;;-3.30
33267;BMP180;19638;49.080;11.896;2022-12-18T15:30:18;97525.00;;;-3.40
33267;BMP180;19638;49.080;11.896;2022-12-18T15:34:23;97531.00;;;-3.50
33267;BMP180;19638;49.080;11.896;2022-12-18T15:38:27;97531.00;;;-3.60
33267;BMP180;19638;49.080;11.896;2022-12-18T15:42:30;97535.00;;;-3.70
33267;BMP180;19638;49.080;11.896;2022-12-18T15:46:51;97536.00;;;-3.80
33267;BMP180;19638;49.080;11.896;2022-12-18T15:50:56;97532.00;;;-3.90
33267;BMP180;19638;49.080;11.896;2022-12-18T15:55:00;97534.00;;;-3.90
33267;BMP180;19638;49.080;11.896;2022-12-18T15:59:21;97536.00;;;-4.00
33267;BMP180;19638;49.080;11.896;2022-12-18T16:03:24;97538.00;;;-4.10
33267;BMP180;19638;49.080;11.896;2022-12-18T16:07:28;97544.00;;;-4.20
33267;BMP180;19638;49.080;11.896;2022-12-18T16:11:33;97543.00;;;-4.30
33267;BMP180;19638;49.080;11.896;2022-12-18T16:15:43;97531.00;;;-4.30
33267;BMP180;19638;49.080;11.896;2022-12-18T16:19:46;97531.00;;;-4.40
33267;BMP180;19638;49.080;11.896;2022-12-18T16:23:51;97526.00;;;-4.40
33267;BMP180;19638;49.080;11.896;2022-12-18T16:27:55;97528.00;;;-4.40
33267;BMP180;19638;49.080;11.896;2022-12-18T16:31:59;97522.00;;;-4.40
33267;BMP180;19638;49.080;11.896;2022-12-18T16:36:03;97520.00;;;-4.40
33267;BMP180;19638;49.080;11.896;2022-12-18T16:40:10;97525.00;;;-4.40
33267;BMP180;19638;49.080;11.896;2022-12-18T16:44:14;97516.00;;;-4.40
33267;BMP180;19638;49.080;11.896;2022-12-18T16:48:17;97530.00;;;-4.50
33267;BMP180;19638;49.080;11.896;2022-12-18T16:52:20;97527.00;;;-4.50
33267;BMP180;19638;49.080;11.896;2022-12-18T16:56:25;97505.00;;;-4.60
33267;BMP180;19638;49.080;11.896;2022-12-18T17:00:28;97516.00;;;-4.60
33267;BMP180;19638;49.080;11.896;2022-12-18T17:04:31;97519.00;;;-4.60
33267;BMP180;19638;49.080;11.896;2022-12-18T17:08:34;97518.00;;;-4.60
33267;BMP180;19638;49.080;11.896;2022-12-18T17:12:39;97513.00;;;-4.60
33267;BMP180;19638;49.080;11.896;2022-12-18T17:16:44;97505.00;;;-4.60
33267;BMP180;19638;49.080;11.896;2022-12-18T17:20:47;97529.00;;;-4.60
33267;BMP180;19638;49.080;11.896;2022-12-18T17:24:50;97515.00;;;-4.70
33267;BMP180;19638;49.080;11.896;2022-12-18T17:28:56;97517.00;;;-4.70
33267;BMP180;19638;49.080;11.896;2022-12-18T17:33:05;97518.00;;;-4.70
33267;BMP180;19638;49.080;11.896;2022-12-18T17:37:08;97514.00;;;-4.80
33267;BMP180;19638;49.080;11.896;2022-12-18T17:41:11;97498.00;;;-4.80
33267;BMP180;19638;49.080;11.896;2022-12-18T17:45:16;97492.00;;;-4.80
33267;BMP180;19638;49.080;11.896;2022-12-18T17:49:19;97495.00;;;-4.80
33267;BMP180;19638;49.080;11.896;2022-12-18T17:53:22;97495.00;;;-4.80
33267;BMP180;19638;49.080;11.896;2022-12-18T17:57:25;97497.00;;;-4.80
33267;BMP180;19638;49.080;11.896;2022-12-18T18:01:30;97489.00;;;-4.80
33267;BMP180;19638;49.080;11.896;2022-12-18T18:05:33;97493.00;;;-4.80
33267;BMP180;19638;49.080;11.896;2022-12-18T18:09:36;97488.00;;;-4.80
33267;BMP180;19638;49.080;11.896;2022-12-18T18:13:39;97470.00;;;-4.80
33267;BMP180;19638;49.080;11.896;2022-12-18T18:18:15;97474.00;;;-4.80
33267;BMP180;19638;49.080;11.896;2022-12-18T18:22:21;97489.00;;;-4.80
33267;BMP180;19638;49.080;11.896;2022-12-18T18:26:25;97487.00;;;-4.70
33267;BMP180;19638;49.080;11.896;2022-12-18T18:30:30;97490.00;;;-4.70
33267;BMP180;19638;49.080;11.896;2022-12-18T18:34:35;97493.00;;;-4.70
33267;BMP180;19638;49.080;11.896;2022-12-18T18:38:38;97487.00;;;-4.70
33267;BMP180;19638;49.080;11.896;2022-12-18T18:42:48;97491.00;;;-4.70
33267;BMP180;19638;49.080;11.896;2022-12-18T18:46:53;97500.00;;;-4.60
33267;BMP180;19638;49.080;11.896;2022-12-18T18:50:59;97502.00;;;-4.50
33267;BMP180;19638;49.080;11.896;2022-12-18T18:55:04;97491.00;;;-4.50
33267;BMP180;19638;49.080;11.896;2022-12-18T18:59:26;97498.00;;;-4.40
33267;BMP180;19638;49.080;11.896;2022-12-18T19:03:32;97492.00;;;-4.30
33267;BMP180;19638;49.080;11.896;2022-12-18T19:07:37;97484.00;;;-4.30
33267;BMP180;19638;49.080;11.896;2022-12-18T19:11:40;97470.00;;;-4.20
33267;BMP180;19638;49.080;11.896;2022-12-18T19:16:03;97469.00;;;-4.20
33267;BMP180;19638;49.080;11.896;2022-12-18T19:20:07;97468.00;;;-4.20
33267;BMP180;19638;49.080;11.896;2022-12-18T19:24:14;97475.00;;;-4.10
33267;BMP180;19638;49.080;11.896;2022-12-18T19:28:18;97467.00;;;-4.10
33267;BMP180;19638;49.080;11.896;2022-12-18T19:32:23;97474.00;;;-4.10
33267;BMP180;19638;49.080;11.896;2022-12-18T19:36:29;97473.00;;;-4.00
33267;BMP180;19638;49.080;11.896;2022-12-18T19:40:34;97474.00;;;-3.90
33267;BMP180;19638;49.080;11.896;2022-12-18T19:44:37;97464.00;;;-3.80
33267;BMP180;19638;49.080;11.896;2022-12-18T19:48:41;97464.00;;;-3.80
33267;BMP180;19638;49.080;11.896;2022-12-18T19:52:45;97472.00;;;-3.70
33267;BMP180;19638;49.080;11.896;2022-12-18T19:56:49;97469.00;;;-3.70
33267;BMP180;19638;49.080;11.896;2022-12-18T20:00:56;97463.00;;;-3.70
33267;BMP180;19638;49.080;11.896;2022-12-18T20:04:59;97465.00;;;-3.60
33267;BMP180;19638;49.080;11.896;2022-12-18T20:09:04;97466.00;;;-3.60
33267;BMP180;19638;49.080;11.896;2022-12-18T20:13:09;97471.00;;;-3.60
33267;BMP180;19638;49.080;11.896;2022-12-18T20:17:15;97469.00;;;-3.50
33267;BMP180;19638;49.080;11.896;2022-12-18T20:21:22;97469.00;;;-3.40
33267;BMP180;19638;49.080;11.896;2022-12-18T20:25:25;97467.00;;;-3.40
33267;BMP180;19638;49.080;11.896;2022-12-18T20:29:30;97482.00;;;-3.40
33267;BMP180;19638;49.080;11.896;2022-12-18T20:33:34;97470.00;;;-3.40
33267;BMP180;19638;49.080;11.896;2022-12-18T20:37:38;97466.00;;;-3.30
33267;BMP180;19638;49.080;11.896;2022-12-18T20:41:50;97464.00;;;-3.30
33267;BMP180;19638;49.080;11.896;2022-12-18T20:46:01;97464.00;;;-3.40
33267;BMP180;19638;49.080;11.896;2022-12-18T20:50:05;97467.00;;;-3.50
33267;BMP180;19638;49.080;11.896;2022-12-18T20:54:08;97454.00;;;-3.50
33267;BMP180;19638;49.080;11.896;2022-12-18T20:58:12;97470.00;;;-3.50
33267;BMP180;19638;49.080;11.896;2022-12-18T21:02:21;97466.00;;;-3.50
33267;BMP180;19638;49.080;11.896;2022-12-18T21:06:25;97463.00;;;-3.50
33267;BMP180;19638;49.080;11.896;2022-12-18T21:10:28;97466.00;;;-3.50
33267;BMP180;19638;49.080;11.896;2022-12-18T21:14:31;97466.00;;;-3.40
33267;BMP180;19638;49.080;11.896;2022-12-18T21:18:36;97468.00;;;-3.40
33267;BMP180;19638;49.080;11.896;2022-12-18T21:22:39;97467.00;;;-3.30
33267;BMP180;19638;49.080;11.896;2022-12-18T21:26:43;97464.00;;;-3.30
33267;BMP180;19638;49.080;11.896;2022-12-18T21:30:47;97459.00;;;-3.30
33267;BMP180;19638;49.080;11.896;2022-12-18T21:34:52;97463.00;;;-3.30
33267;BMP180;19638;49.080;11.896;2022-12-18T21:38:56;97446.00;;;-3.30
33267;BMP180;19638;49.080;11.896;2022-12-18T21:42:59;97436.00;;;-3.20
33267;BMP180;19638;49.080;11.896;2022-12-18T21:47:18;97414.00;;;-3.20
33267;BMP180;19638;49.080;11.896;2022-12-18T21:51:25;97420.00;;;-3.20
33267;BMP180;19638;49.080;11.896;2022-12-18T21:55:28;97429.00;;;-3.20
33267;BMP180;19638;49.080;11.896;2022-12-18T21:59:33;97429.00;;;-3.10
33267;BMP180;19638;49.080;11.896;2022-12-18T22:03:36;97424.00;;;-3.10
33267;BMP180;19638;49.080;11.896;2022-12-18T22:07:41;97420.00;;;-3.10
33267;BMP180;19638;49.080;11.896;2022-12-18T22:11:45;97427.00;;;-3.10
33267;BMP180;19638;49.080;11.896;2022-12-18T22:15:48;97416.00;;;-3.00
33267;BMP180;19638;49.080;11.896;2022-12-18T22:19:51;97406.00;;;-3.00
33267;BMP180;19638;49.080;11.896;2022-12-18T22:23:57;97408.00;;;-2.90
33267;BMP180;19638;49.080;11.896;2022-12-18T22:28:00;97400.00;;;-2.90
33267;BMP180;19638;49.080;11.896;2022-12-18T22:32:20;97393.00;;;-2.90
33267;BMP180;19638;49.080;11.896;2022-12-18T22:36:36;97384.00;;;-2.90
33267;BMP180;19638;49.080;11.896;2022-12-18T22:40:41;97398.00;;;-2.80
33267;BMP180;19638;49.080;11.896;2022-12-18T22:44:44;97383.00;;;-2.80
33267;BMP180;19638;49.080;11.896;2022-12-18T22:48:48;97373.00;;;-2.80
33267;BMP180;19638;49.080;11.896;2022-12-18T22:52:51;97366.00;;;-2.80
33267;BMP180;19638;49.080;11.896;2022-12-18T22:57:01;97353.00;;;-2.80
33267;BMP180;19638;49.080;11.896;2022-12-18T23:01:05;97348.00;;;-2.80
33267;BMP180;19638;49.080;11.896;2022-12-18T23:05:10;97349.00;;;-2.70
33267;BMP180;19638;49.080;11.896;2022-12-18T23:09:14;97353.00;;;-2.70
33267;BMP180;19638;49.080;11.896;2022-12-18T23:13:19;97354.00;;;-2.70
33267;BMP180;19638;49.080;11.896;2022-12-18T23:17:22;97361.00;;;-2.60
33267;BMP180;19638;49.080;11.896;2022-12-18T23:21:25;97350.00;;;-2.60
33267;BMP180;19638;49.080;11.896;2022-12-18T23:25:29;97370.00;;;-2.50
33267;BMP180;19638;49.080;11.896;2022-12-18T23:29:35;97394.00;;;-2.50
33267;BMP180;19638;49.080;11.896;2022-12-18T23:33:38;97373.00;;;-2.50
33267;BMP180;19638;49.080;11.896;2022-12-18T23:37:41;97382.00;;;-2.50
33267;BMP180;19638;49.080;11.896;2022-12-18T23:42:01;97368.00;;;-2.50